createdAt,value
2023-03-09T00:00:23.130Z,83.40
2023-03-09T00:01:28.661Z,83.38
2023-03-09T00:02:31.063Z,83.62
2023-03-09T00:03:33.382Z,83.83
2023-03-09T00:04:36.332Z,83.79
2023-03-09T00:05:38.436Z,83.97
2023-03-09T00:06:41.696Z,84.09
2023-03-09T00:07:45.128Z,84.27
2023-03-09T00:08:48.071Z,84.16
2023-03-09T00:09:50.593Z,84.06
2023-03-09T00:10:53.269Z,83.72
2023-03-09T00:11:55.632Z,83.69
2023-03-09T00:12:57.791Z,83.77
2023-03-09T00:14:00.337Z,83.44
2023-03-09T00:15:02.714Z,83.52
2023-03-09T00:16:20.813Z,83.45
2023-03-09T00:17:23.106Z,83.38
2023-03-09T00:18:25.253Z,83.82
2023-03-09T00:19:27.374Z,83.73
2023-03-09T00:20:29.710Z,83.64
2023-03-09T00:21:35.817Z,83.59
2023-03-09T00:22:38.296Z,83.62
2023-03-09T00:23:40.419Z,83.83
2023-03-09T00:24:44.457Z,83.88
2023-03-09T00:25:46.982Z,83.97
2023-03-09T00:26:52.782Z,84.01
2023-03-09T00:27:57.180Z,83.94
2023-03-09T00:28:59.430Z,84.10
2023-03-09T00:30:02.127Z,84.10
2023-03-09T00:31:08.178Z,83.59
2023-03-09T00:32:11.617Z,83.59
2023-03-09T00:33:13.999Z,83.78
2023-03-09T00:34:16.771Z,83.78
2023-03-09T00:35:19.319Z,83.89
2023-03-09T00:36:21.658Z,83.84
2023-03-09T00:37:24.965Z,83.83
2023-03-09T00:38:27.546Z,83.79
2023-03-09T00:39:30.030Z,84.02
2023-03-09T00:40:32.801Z,84.01
2023-03-09T00:41:35.275Z,84.03
2023-03-09T00:43:54.507Z,84.02
2023-03-09T00:44:57.291Z,84.10
2023-03-09T00:45:59.905Z,83.90
2023-03-09T00:47:02.589Z,83.68
2023-03-09T00:48:05.560Z,83.68
2023-03-09T00:49:11.361Z,83.50
2023-03-09T00:50:13.759Z,83.48
2023-03-09T00:51:16.782Z,83.71
2023-03-09T00:52:19.275Z,83.58
2023-03-09T00:53:21.773Z,83.60
2023-03-09T00:54:25.141Z,83.72
2023-03-09T00:55:28.171Z,83.64
2023-03-09T00:56:31.008Z,83.74
2023-03-09T00:57:33.590Z,83.65
2023-03-09T00:58:36.191Z,83.87
2023-03-09T00:59:38.849Z,83.89
2023-03-09T01:00:41.076Z,83.53
2023-03-09T01:01:43.760Z,83.52
2023-03-09T01:02:46.641Z,83.55
2023-03-09T01:03:49.392Z,83.23
2023-03-09T01:04:52.023Z,83.25
2023-03-09T01:05:55.681Z,82.86
2023-03-09T01:06:58.268Z,82.78
2023-03-09T01:08:01.072Z,82.82
2023-03-09T01:09:03.584Z,82.87
2023-03-09T01:10:07.185Z,83.15
2023-03-09T01:11:12.320Z,82.93
2023-03-09T01:12:15.013Z,83.09
2023-03-09T01:13:17.558Z,83.20
2023-03-09T01:14:20.213Z,83.20
2023-03-09T01:15:22.806Z,83.41
2023-03-09T01:16:25.677Z,83.48
2023-03-09T01:17:28.344Z,83.77
2023-03-09T01:18:30.892Z,83.83
2023-03-09T01:19:34.317Z,83.89
2023-03-09T01:20:37.028Z,84.16
2023-03-09T01:21:39.909Z,84.19
2023-03-09T01:22:43.137Z,84.26
2023-03-09T01:23:45.736Z,84.29
2023-03-09T01:24:48.429Z,84.25
2023-03-09T01:25:50.769Z,84.42
2023-03-09T01:26:53.725Z,84.47
2023-03-09T01:27:56.190Z,84.67
2023-03-09T01:28:59.086Z,84.60
2023-03-09T01:30:01.615Z,84.31
2023-03-09T01:31:10.304Z,84.24
2023-03-09T01:32:14.682Z,84.54
2023-03-09T01:33:17.598Z,84.56
2023-03-09T01:34:20.575Z,84.67
2023-03-09T01:35:23.382Z,84.78
2023-03-09T01:36:26.570Z,84.66
2023-03-09T01:37:29.186Z,84.98
2023-03-09T01:38:32.510Z,84.91
2023-03-09T01:39:35.615Z,84.94
2023-03-09T01:40:38.081Z,85.02
2023-03-09T01:41:42.185Z,85.00
2023-03-09T01:42:44.536Z,85.00
2023-03-09T01:43:48.952Z,85.10
2023-03-09T01:45:22.601Z,85.36
2023-03-09T01:46:31.601Z,85.30
2023-03-09T01:47:34.441Z,85.20
2023-03-09T01:48:37.358Z,85.33
2023-03-09T01:49:43.653Z,85.26
2023-03-09T01:50:46.263Z,85.28
2023-03-09T01:52:11.859Z,85.34
2023-03-09T01:53:17.846Z,85.32
2023-03-09T01:54:34.159Z,85.20
2023-03-09T01:55:43.457Z,85.32
2023-03-09T01:56:50.890Z,85.55
2023-03-09T01:57:59.689Z,85.75
2023-03-09T01:59:04.266Z,85.74
2023-03-09T02:00:12.555Z,85.82
2023-03-09T02:01:32.184Z,85.93
2023-03-09T02:02:38.937Z,86.13
2023-03-09T02:03:45.076Z,86.00
2023-03-09T02:04:51.196Z,86.02
2023-03-09T02:06:00.108Z,86.20
2023-03-09T02:07:02.983Z,86.38
2023-03-09T02:08:06.771Z,86.45
2023-03-09T02:10:35.643Z,86.40
2023-03-09T02:11:39.673Z,86.55
2023-03-09T02:12:42.379Z,86.61
2023-03-09T02:13:51.196Z,86.82
2023-03-09T02:14:54.003Z,86.61
2023-03-09T02:15:56.615Z,86.46
2023-03-09T02:16:59.284Z,86.44
2023-03-09T02:18:02.945Z,86.29
2023-03-09T02:19:09.378Z,86.35
2023-03-09T02:20:31.424Z,86.25
2023-03-09T02:21:46.451Z,86.34
2023-03-09T02:22:49.569Z,85.75
2023-03-09T02:24:08.243Z,85.67
2023-03-09T02:25:14.861Z,85.55
2023-03-09T02:26:24.017Z,85.67
2023-03-09T02:27:28.471Z,85.56
2023-03-09T02:28:31.652Z,85.43
2023-03-09T02:29:35.366Z,85.54
2023-03-09T02:30:41.441Z,85.45
2023-03-09T02:31:44.410Z,85.52
2023-03-09T02:32:46.872Z,85.54
2023-03-09T02:33:49.190Z,85.70
2023-03-09T02:34:52.319Z,85.82
2023-03-09T02:35:58.382Z,85.88
2023-03-09T02:37:01.501Z,85.86
2023-03-09T02:38:05.890Z,85.87
2023-03-09T02:39:32.121Z,85.76
2023-03-09T02:40:36.292Z,85.70
2023-03-09T02:41:40.595Z,85.79
2023-03-09T02:42:45.823Z,85.80
2023-03-09T02:43:51.276Z,85.88
2023-03-09T02:44:55.664Z,85.71
2023-03-09T02:45:58.862Z,85.87
2023-03-09T02:47:04.333Z,85.86
2023-03-09T02:48:06.783Z,85.53
2023-03-09T02:49:11.004Z,85.30
2023-03-09T02:50:15.187Z,84.79
2023-03-09T02:51:17.713Z,84.84
2023-03-09T02:52:20.908Z,84.70
2023-03-09T02:53:24.384Z,84.63
2023-03-09T02:54:26.777Z,84.46
2023-03-09T02:55:29.354Z,84.35
2023-03-09T02:56:32.491Z,84.17
2023-03-09T02:57:36.448Z,84.26
2023-03-09T02:58:39.642Z,84.05
2023-03-09T02:59:42.222Z,83.97
2023-03-09T03:00:44.855Z,83.86
2023-03-09T03:01:47.271Z,83.82
2023-03-09T03:02:51.258Z,83.99
2023-03-09T03:03:53.774Z,84.06
2023-03-09T03:04:56.496Z,83.90
2023-03-09T03:05:59.517Z,83.95
2023-03-09T03:07:02.352Z,83.63
2023-03-09T03:08:07.826Z,83.56
2023-03-09T03:09:10.840Z,83.63
2023-03-09T03:10:14.467Z,83.32
2023-03-09T03:11:17.163Z,83.20
2023-03-09T03:12:19.962Z,83.20
2023-03-09T03:13:22.328Z,82.90
2023-03-09T03:14:25.538Z,82.92
2023-03-09T03:15:28.076Z,83.15
2023-03-09T03:16:31.096Z,83.29
2023-03-09T03:17:34.061Z,83.36
2023-03-09T03:18:36.872Z,83.16
2023-03-09T03:19:40.018Z,83.29
2023-03-09T03:20:42.765Z,83.56
2023-03-09T03:21:46.209Z,83.89
2023-03-09T03:22:49.041Z,84.04
2023-03-09T03:23:53.466Z,84.39
2023-03-09T03:24:56.328Z,84.59
2023-03-09T03:26:08.538Z,84.74
2023-03-09T03:27:12.544Z,84.83
2023-03-09T03:28:16.637Z,84.73
2023-03-09T03:29:19.480Z,84.57
2023-03-09T03:30:23.020Z,84.28
2023-03-09T03:31:26.180Z,84.54
2023-03-09T03:32:29.223Z,84.72
2023-03-09T03:33:31.661Z,84.99
2023-03-09T03:34:35.401Z,84.97
2023-03-09T03:35:38.173Z,84.82
2023-03-09T03:36:40.740Z,85.08
2023-03-09T03:37:43.472Z,85.59
2023-03-09T03:38:46.417Z,86.22
2023-03-09T03:39:49.094Z,86.22
2023-03-09T03:40:53.370Z,86.32
2023-03-09T03:41:55.804Z,86.48
2023-03-09T03:42:58.913Z,86.66
2023-03-09T03:44:01.726Z,86.19
2023-03-09T03:45:05.537Z,86.73
2023-03-09T03:46:08.350Z,86.65
2023-03-09T03:47:10.981Z,86.64
2023-03-09T03:48:13.406Z,86.95
2023-03-09T03:49:16.141Z,86.56
2023-03-09T03:50:18.945Z,86.55
2023-03-09T03:51:23.278Z,86.49
2023-03-09T03:52:27.323Z,86.73
2023-03-09T03:53:29.825Z,86.91
2023-03-09T03:54:32.541Z,86.60
2023-03-09T03:55:35.426Z,87.11
2023-03-09T03:56:38.504Z,87.28
2023-03-09T03:57:42.849Z,87.32
2023-03-09T03:58:45.950Z,87.80
2023-03-09T03:59:50.274Z,87.82
2023-03-09T04:00:53.288Z,87.44
2023-03-09T04:01:57.580Z,87.60
2023-03-09T04:03:01.914Z,87.81
2023-03-09T04:04:06.229Z,87.81
2023-03-09T04:05:10.104Z,87.77
2023-03-09T04:06:13.394Z,87.91
2023-03-09T04:07:16.424Z,88.20
2023-03-09T04:08:19.461Z,87.87
2023-03-09T04:09:23.663Z,88.17
2023-03-09T04:10:26.465Z,87.87
2023-03-09T04:11:29.452Z,87.76
2023-03-09T04:12:31.858Z,88.03
2023-03-09T04:13:34.812Z,87.95
2023-03-09T04:14:38.159Z,87.85
2023-03-09T04:15:41.680Z,87.86
2023-03-09T04:16:44.179Z,87.59
2023-03-09T04:17:48.248Z,87.43
2023-03-09T04:18:51.069Z,87.11
2023-03-09T04:19:55.379Z,87.42
2023-03-09T04:20:58.229Z,86.92
2023-03-09T04:22:00.954Z,87.17
2023-03-09T04:23:04.608Z,87.60
2023-03-09T04:24:07.609Z,87.61
2023-03-09T04:25:10.553Z,87.03
2023-03-09T04:26:13.248Z,86.79
2023-03-09T04:27:23.362Z,86.88
2023-03-09T04:28:27.852Z,86.86
2023-03-09T04:29:32.997Z,86.82
2023-03-09T04:30:36.586Z,86.88
2023-03-09T04:31:40.925Z,86.76
2023-03-09T04:32:43.533Z,87.04
2023-03-09T04:33:46.126Z,86.71
2023-03-09T04:34:50.219Z,86.42
2023-03-09T04:35:53.608Z,86.19
2023-03-09T04:36:58.645Z,86.27
2023-03-09T04:38:01.321Z,86.64
2023-03-09T04:39:07.630Z,87.00
2023-03-09T04:40:14.886Z,86.99
2023-03-09T04:41:17.682Z,86.67
2023-03-09T04:42:22.089Z,86.31
2023-03-09T04:43:24.830Z,86.23
2023-03-09T04:44:27.188Z,86.07
2023-03-09T04:45:31.003Z,86.13
2023-03-09T04:46:33.873Z,86.25
2023-03-09T04:47:38.228Z,86.36
2023-03-09T04:48:40.463Z,85.82
2023-03-09T04:49:43.031Z,85.87
2023-03-09T04:50:46.264Z,86.04
2023-03-09T04:51:49.837Z,85.26
2023-03-09T04:52:53.756Z,85.71
2023-03-09T04:53:56.459Z,85.07
2023-03-09T04:55:00.752Z,85.31
2023-03-09T04:56:03.614Z,85.08
2023-03-09T04:57:07.820Z,84.88
2023-03-09T04:58:10.505Z,85.34
2023-03-09T04:59:12.652Z,84.89
2023-03-09T05:00:17.517Z,84.95
2023-03-09T05:01:22.131Z,84.68
2023-03-09T05:02:26.505Z,84.70
2023-03-09T05:03:30.295Z,84.64
2023-03-09T05:04:33.878Z,84.34
2023-03-09T05:05:35.998Z,84.46
2023-03-09T05:06:38.889Z,84.65
2023-03-09T05:07:41.694Z,84.58
2023-03-09T05:08:44.802Z,84.56
2023-03-09T05:09:47.847Z,84.65
2023-03-09T05:10:50.568Z,84.32
2023-03-09T05:11:54.905Z,84.27
2023-03-09T05:12:59.107Z,84.57
2023-03-09T05:14:03.328Z,84.66
2023-03-09T05:15:08.291Z,85.03
2023-03-09T05:16:12.744Z,84.33
2023-03-09T05:17:17.387Z,84.05
2023-03-09T05:18:21.323Z,83.62
2023-03-09T05:19:24.921Z,83.44
2023-03-09T05:20:29.917Z,83.60
2023-03-09T05:21:37.589Z,83.92
2023-03-09T05:22:43.350Z,83.43
2023-03-09T05:23:47.231Z,83.85
2023-03-09T05:24:50.438Z,83.69
2023-03-09T05:26:00.655Z,83.67
2023-03-09T05:27:03.388Z,83.50
2023-03-09T05:28:08.453Z,83.54
2023-03-09T05:29:12.208Z,83.37
2023-03-09T05:30:16.994Z,83.37
2023-03-09T05:31:21.126Z,83.75
2023-03-09T05:32:23.855Z,83.59
2023-03-09T05:33:27.426Z,84.24
2023-03-09T05:34:29.926Z,83.87
2023-03-09T05:35:33.973Z,83.33
2023-03-09T05:36:38.292Z,83.13
2023-03-09T05:37:44.127Z,83.42
2023-03-09T05:38:49.883Z,83.20
2023-03-09T05:39:52.229Z,82.71
2023-03-09T05:40:54.792Z,83.04
2023-03-09T05:41:59.828Z,83.85
2023-03-09T05:43:12.623Z,83.43
2023-03-09T05:44:15.595Z,82.18
2023-03-09T05:45:18.714Z,81.54
2023-03-09T05:46:23.325Z,81.47
2023-03-09T05:47:27.199Z,81.43
2023-03-09T05:48:30.054Z,81.93
2023-03-09T05:49:32.395Z,81.68
2023-03-09T05:50:34.771Z,81.75
2023-03-09T05:51:37.903Z,81.80
2023-03-09T05:52:41.417Z,81.87
2023-03-09T05:53:44.164Z,81.94
2023-03-09T05:54:47.130Z,82.20
2023-03-09T05:55:52.840Z,82.31
2023-03-09T05:56:57.250Z,82.19
2023-03-09T05:58:00.279Z,82.27
2023-03-09T05:59:03.501Z,82.33
2023-03-09T06:00:10.647Z,82.32
2023-03-09T06:01:23.943Z,82.10
2023-03-09T06:02:28.346Z,82.15
2023-03-09T06:03:31.482Z,82.38
2023-03-09T06:04:35.311Z,82.38
2023-03-09T06:05:39.500Z,82.36
2023-03-09T06:06:41.948Z,82.22
2023-03-09T06:07:45.033Z,82.37
2023-03-09T06:08:49.233Z,82.36
2023-03-09T06:09:52.427Z,82.48
2023-03-09T06:11:00.864Z,82.41
2023-03-09T06:12:05.792Z,82.78
2023-03-09T06:13:11.077Z,82.78
2023-03-09T06:14:14.692Z,82.75
2023-03-09T06:15:17.806Z,82.62
2023-03-09T06:16:21.049Z,82.32
2023-03-09T06:17:24.412Z,82.49
2023-03-09T06:18:28.150Z,82.24
2023-03-09T06:19:31.117Z,82.42
2023-03-09T06:20:38.412Z,81.87
2023-03-09T06:21:40.894Z,81.85
2023-03-09T06:22:45.152Z,81.71
2023-03-09T06:23:47.911Z,81.69
2023-03-09T06:24:52.371Z,81.33
2023-03-09T06:25:57.184Z,81.21
2023-03-09T06:27:00.703Z,81.16
2023-03-09T06:28:08.997Z,81.36
2023-03-09T06:29:12.725Z,81.11
2023-03-09T06:30:19.409Z,81.26
2023-03-09T06:31:21.588Z,81.08
2023-03-09T06:32:26.909Z,80.98
2023-03-09T06:33:30.817Z,80.80
2023-03-09T06:34:35.087Z,80.43
2023-03-09T06:35:40.600Z,80.23
2023-03-09T06:36:44.732Z,79.97
2023-03-09T06:37:47.556Z,80.03
2023-03-09T06:38:52.406Z,79.98
2023-03-09T06:39:56.828Z,80.12
2023-03-09T06:41:02.342Z,79.92
2023-03-09T06:42:05.999Z,79.54
2023-03-09T06:43:12.720Z,79.38
2023-03-09T06:44:16.277Z,79.63
2023-03-09T06:45:25.225Z,79.57
2023-03-09T06:46:28.743Z,79.70
2023-03-09T06:47:35.408Z,79.56
2023-03-09T06:48:39.511Z,79.76
2023-03-09T06:49:43.776Z,79.73
2023-03-09T06:50:49.457Z,79.60
2023-03-09T06:51:51.867Z,79.53
2023-03-09T06:52:54.963Z,79.43
2023-03-09T06:53:59.380Z,79.45
2023-03-09T06:55:15.432Z,79.46
2023-03-09T06:56:12.196Z,79.44
2023-03-09T06:57:14.534Z,78.99
2023-03-09T06:58:17.119Z,78.99
2023-03-09T06:59:25.429Z,78.61
2023-03-09T07:00:38.799Z,78.36
2023-03-09T07:01:45.052Z,78.45
2023-03-09T07:02:51.080Z,78.61
2023-03-09T07:03:57.001Z,78.26
2023-03-09T07:04:59.831Z,78.41
2023-03-09T07:06:02.660Z,77.49
2023-03-09T07:07:04.941Z,77.42
2023-03-09T07:08:08.207Z,77.28
2023-03-09T07:09:10.956Z,76.73
2023-03-09T07:11:35.537Z,76.48
2023-03-09T07:12:38.605Z,76.48
2023-03-09T07:13:41.306Z,76.17
2023-03-09T07:14:43.878Z,75.86
2023-03-09T07:15:46.551Z,75.71
2023-03-09T07:16:56.466Z,75.64
2023-03-09T07:17:58.732Z,75.24
2023-03-09T07:19:01.390Z,75.03
2023-03-09T07:20:04.959Z,74.95
2023-03-09T07:21:07.572Z,75.09
2023-03-09T07:23:44.480Z,75.08
2023-03-09T07:24:47.013Z,74.73
2023-03-09T07:25:50.230Z,74.46
2023-03-09T07:26:55.080Z,74.27
2023-03-09T07:27:58.055Z,73.89
2023-03-09T07:29:02.212Z,73.95
2023-03-09T07:30:05.765Z,73.67
2023-03-09T07:31:13.176Z,73.09
2023-03-09T07:32:15.455Z,72.92
2023-03-09T07:33:18.085Z,72.68
2023-03-09T07:34:22.732Z,73.29
2023-03-09T07:35:28.759Z,73.70
2023-03-09T07:36:39.453Z,73.45
2023-03-09T07:38:57.915Z,72.63
2023-03-09T07:40:02.116Z,73.06
2023-03-09T07:41:06.231Z,72.56
2023-03-09T07:42:08.652Z,72.31
2023-03-09T07:43:28.772Z,72.72
2023-03-09T07:44:41.266Z,72.54
2023-03-09T07:45:43.741Z,72.02
2023-03-09T07:46:46.350Z,72.27
2023-03-09T07:47:49.461Z,71.98
2023-03-09T07:48:54.453Z,71.80
2023-03-09T07:50:07.230Z,71.09
2023-03-09T07:51:12.096Z,70.71
2023-03-09T07:52:15.161Z,70.31
2023-03-09T07:53:18.988Z,70.42
2023-03-09T07:54:21.216Z,70.57
2023-03-09T07:55:24.272Z,70.50
2023-03-09T07:56:27.296Z,70.27
2023-03-09T07:57:33.709Z,69.66
2023-03-09T07:58:42.483Z,69.17
2023-03-09T07:59:49.948Z,69.18
2023-03-09T08:00:57.247Z,69.13
2023-03-09T08:01:59.658Z,69.93
2023-03-09T08:03:06.205Z,69.94
2023-03-09T08:04:09.454Z,68.00
2023-03-09T08:05:12.757Z,68.52
2023-03-09T08:06:16.016Z,68.42
2023-03-09T08:07:19.664Z,69.57
2023-03-09T08:08:24.413Z,67.66
2023-03-09T08:09:28.072Z,66.47
2023-03-09T08:10:31.765Z,66.61
2023-03-09T08:11:34.347Z,66.86
2023-03-09T08:12:37.228Z,66.27
2023-03-09T08:13:39.806Z,70.02
2023-03-09T08:14:42.555Z,68.11
2023-03-09T08:15:45.078Z,66.06
2023-03-09T08:16:48.118Z,64.18
2023-03-09T08:17:50.736Z,65.90
2023-03-09T08:18:54.321Z,69.42
2023-03-09T08:19:57.538Z,64.47
2023-03-09T08:21:10.743Z,63.96
2023-03-09T08:22:13.468Z,65.94
2023-03-09T08:23:16.468Z,63.71
2023-03-09T08:24:18.933Z,64.46
2023-03-09T08:25:21.937Z,64.05
2023-03-09T08:26:26.305Z,65.31
2023-03-09T08:27:28.932Z,65.58
2023-03-09T08:28:31.700Z,64.96
2023-03-09T08:29:34.070Z,63.76
2023-03-09T08:30:40.412Z,64.43
2023-03-09T08:31:43.304Z,65.26
2023-03-09T08:32:47.739Z,67.77
2023-03-09T08:33:51.992Z,63.81
2023-03-09T08:34:57.685Z,66.60
2023-03-09T08:36:00.444Z,63.59
2023-03-09T08:37:04.308Z,63.85
2023-03-09T08:38:07.156Z,62.64
2023-03-09T08:39:09.812Z,63.41
2023-03-09T08:40:14.772Z,64.25
2023-03-09T08:41:17.239Z,65.19
2023-03-09T08:42:20.381Z,65.15
2023-03-09T08:43:22.808Z,64.86
2023-03-09T08:44:25.306Z,64.54
2023-03-09T08:45:28.124Z,67.09
2023-03-09T08:46:30.516Z,63.54
2023-03-09T08:47:33.453Z,63.47
2023-03-09T08:48:36.252Z,63.46
2023-03-09T08:49:40.312Z,63.68
2023-03-09T08:50:44.244Z,64.04
2023-03-09T08:51:49.167Z,64.18
2023-03-09T08:52:51.810Z,64.51
2023-03-09T08:53:54.904Z,67.14
2023-03-09T08:54:57.446Z,64.38
2023-03-09T08:56:05.251Z,63.68
2023-03-09T08:57:08.233Z,64.15
2023-03-09T08:58:10.797Z,63.91
2023-03-09T08:59:13.422Z,63.95
2023-03-09T09:00:16.802Z,63.55
2023-03-09T09:01:21.145Z,63.24
2023-03-09T09:02:24.046Z,62.80
2023-03-09T09:03:29.347Z,62.94
2023-03-09T09:04:31.926Z,62.59
2023-03-09T09:05:34.967Z,62.83
2023-03-09T09:06:38.233Z,62.90
2023-03-09T09:07:42.726Z,62.77
2023-03-09T09:08:46.010Z,62.73
2023-03-09T09:09:48.503Z,62.55
2023-03-09T09:10:52.746Z,62.29
2023-03-09T09:11:56.388Z,62.20
2023-03-09T09:12:58.634Z,62.18
2023-03-09T09:14:01.473Z,61.88
2023-03-09T09:15:13.583Z,61.93
2023-03-09T09:16:16.157Z,61.99
2023-03-09T09:17:18.485Z,61.95
2023-03-09T09:18:24.376Z,61.79
2023-03-09T09:19:26.256Z,61.90
2023-03-09T09:20:29.419Z,61.63
2023-03-09T09:21:32.912Z,61.69
2023-03-09T09:22:36.130Z,61.58
2023-03-09T09:23:40.576Z,61.54
2023-03-09T09:24:44.906Z,61.35
2023-03-09T09:25:51.342Z,61.49
2023-03-09T09:26:56.888Z,61.55
2023-03-09T09:28:00.564Z,61.40
2023-03-09T09:29:06.629Z,60.92
2023-03-09T09:30:10.518Z,60.93
2023-03-09T09:31:19.550Z,60.84
2023-03-09T09:32:22.630Z,61.16
2023-03-09T09:33:27.346Z,60.54
2023-03-09T09:35:47.939Z,60.10
2023-03-09T09:36:51.257Z,59.89
2023-03-09T09:37:54.862Z,59.99
2023-03-09T09:38:57.916Z,59.98
2023-03-09T09:40:00.527Z,60.03
2023-03-09T09:41:07.012Z,59.85
2023-03-09T09:42:15.954Z,59.43
2023-03-09T09:43:18.903Z,59.20
2023-03-09T09:44:28.477Z,59.26
2023-03-09T09:45:37.136Z,59.37
2023-03-09T09:46:40.451Z,59.45
2023-03-09T09:49:26.583Z,59.22
2023-03-09T09:51:58.095Z,59.82
2023-03-09T09:54:36.373Z,60.37
2023-03-09T09:55:42.044Z,60.05
2023-03-09T09:56:53.996Z,60.19
2023-03-09T09:58:19.677Z,60.41
2023-03-09T09:59:29.616Z,60.55
2023-03-09T10:00:42.946Z,60.33
2023-03-09T10:01:59.144Z,60.10
2023-03-09T10:03:21.761Z,59.91
2023-03-09T10:04:30.942Z,59.61
2023-03-09T10:05:49.291Z,59.54
2023-03-09T10:06:54.441Z,59.33
2023-03-09T10:07:58.797Z,59.03
2023-03-09T10:10:25.460Z,59.10
2023-03-09T10:12:55.375Z,58.32
2023-03-09T10:14:21.038Z,58.33
2023-03-09T10:15:31.554Z,58.15
2023-03-09T10:16:44.399Z,58.04
2023-03-09T10:17:50.461Z,57.87
2023-03-09T10:18:56.911Z,57.67
2023-03-09T10:20:02.965Z,57.84
2023-03-09T10:21:11.089Z,57.95
2023-03-09T10:22:17.221Z,57.81
2023-03-09T10:23:28.944Z,57.37
2023-03-09T10:24:47.019Z,57.34
2023-03-09T10:25:59.071Z,56.89
2023-03-09T10:27:22.784Z,56.96
2023-03-09T10:28:30.076Z,56.90
2023-03-09T10:30:01.048Z,56.94
2023-03-09T10:31:00.739Z,56.65
2023-03-09T10:32:09.998Z,57.09
2023-03-09T10:33:19.320Z,57.17
2023-03-09T10:34:27.065Z,57.03
2023-03-09T10:35:48.704Z,56.88
2023-03-09T10:37:00.488Z,56.88
2023-03-09T10:38:03.572Z,57.48
2023-03-09T10:39:15.488Z,57.02
2023-03-09T10:40:21.928Z,57.19
2023-03-09T10:41:24.209Z,56.17
2023-03-09T10:42:28.308Z,55.82
2023-03-09T10:43:35.168Z,55.49
2023-03-09T10:44:38.080Z,54.84
2023-03-09T10:45:42.121Z,54.69
2023-03-09T10:47:03.989Z,54.89
2023-03-09T10:48:07.387Z,54.57
2023-03-09T10:49:12.798Z,53.89
2023-03-09T10:50:24.628Z,53.50
2023-03-09T10:51:27.741Z,53.96
2023-03-09T10:52:30.662Z,53.07
2023-03-09T10:53:48.731Z,52.83
2023-03-09T10:54:50.923Z,53.63
2023-03-09T10:56:06.051Z,53.62
2023-03-09T10:57:01.561Z,53.94
2023-03-09T10:58:19.503Z,54.10
2023-03-09T10:59:24.518Z,53.39
2023-03-09T11:00:27.913Z,53.52
2023-03-09T11:01:30.304Z,53.65
2023-03-09T11:02:35.879Z,53.82
2023-03-09T11:03:42.030Z,54.18
2023-03-09T11:04:44.318Z,54.00
2023-03-09T11:05:46.981Z,54.00
2023-03-09T11:06:53.205Z,53.77
2023-03-09T11:07:58.463Z,54.38
2023-03-09T11:09:28.969Z,54.09
2023-03-09T11:10:34.746Z,54.38
2023-03-09T11:11:37.440Z,54.17
2023-03-09T11:12:44.119Z,54.47
2023-03-09T11:13:48.062Z,54.45
2023-03-09T11:14:56.800Z,54.63
2023-03-09T11:16:30.500Z,54.83
2023-03-09T11:17:39.308Z,54.97
2023-03-09T11:18:41.742Z,54.31
2023-03-09T11:19:44.182Z,54.64
2023-03-09T11:20:50.679Z,54.87
2023-03-09T11:22:08.650Z,54.67
2023-03-09T11:23:20.789Z,54.52
2023-03-09T11:26:10.053Z,54.11
2023-03-09T11:27:18.709Z,54.19
2023-03-09T11:28:54.984Z,54.21
2023-03-09T11:30:30.742Z,53.67
2023-03-09T11:31:40.458Z,53.72
2023-03-09T11:32:44.953Z,53.76
2023-03-09T11:33:50.832Z,54.07
2023-03-09T11:34:53.803Z,54.38
2023-03-09T11:35:56.693Z,54.39
2023-03-09T11:37:13.057Z,54.23
2023-03-09T11:38:21.328Z,54.20
2023-03-09T11:39:33.393Z,54.08
2023-03-09T11:40:39.270Z,54.18
2023-03-09T11:41:44.165Z,53.89
2023-03-09T11:42:52.859Z,53.93
2023-03-09T11:43:59.861Z,54.09
2023-03-09T11:45:07.371Z,53.56
2023-03-09T11:46:15.612Z,53.48
2023-03-09T11:47:40.945Z,53.59
2023-03-09T11:48:49.941Z,53.15
2023-03-09T11:49:58.777Z,53.53
2023-03-09T11:51:07.947Z,53.56
2023-03-09T11:52:13.905Z,53.26
2023-03-09T11:53:24.860Z,52.92
2023-03-09T11:54:39.937Z,52.81
2023-03-09T11:55:46.163Z,52.99
2023-03-09T11:56:49.580Z,52.94
2023-03-09T11:57:55.668Z,53.13
2023-03-09T11:59:15.319Z,53.07
2023-03-09T12:00:23.703Z,52.70
2023-03-09T12:01:45.489Z,53.06
2023-03-09T12:03:11.379Z,53.95
2023-03-09T12:04:15.955Z,54.21
2023-03-09T12:05:25.322Z,53.66
2023-03-09T12:06:48.319Z,53.31
2023-03-09T12:08:00.400Z,53.59
2023-03-09T12:09:06.936Z,53.65
2023-03-09T12:10:20.583Z,54.00
2023-03-09T12:11:26.525Z,54.12
2023-03-09T12:12:37.450Z,54.12
2023-03-09T12:15:53.267Z,54.97
2023-03-09T12:17:00.128Z,54.15
2023-03-09T12:18:06.399Z,54.11
2023-03-09T12:19:18.104Z,54.25
2023-03-09T12:20:38.749Z,54.60
2023-03-09T12:21:46.506Z,54.44
2023-03-09T12:22:48.988Z,54.42
2023-03-09T12:23:52.597Z,54.42
2023-03-09T12:25:02.357Z,54.88
2023-03-09T12:26:15.254Z,55.37
2023-03-09T12:27:20.365Z,55.06
2023-03-09T12:28:25.808Z,55.38
2023-03-09T12:29:42.169Z,55.49
2023-03-09T12:30:55.004Z,55.40
2023-03-09T12:32:18.100Z,55.99
2023-03-09T12:33:45.638Z,55.55
2023-03-09T12:34:50.872Z,55.55
2023-03-09T12:35:59.902Z,55.82
2023-03-09T12:37:38.152Z,55.76
2023-03-09T12:38:40.370Z,55.92
2023-03-09T12:39:44.717Z,55.68
2023-03-09T12:40:49.322Z,55.61
2023-03-09T12:42:10.210Z,56.19
2023-03-09T12:43:21.989Z,55.94
2023-03-09T12:44:52.187Z,55.49
2023-03-09T12:45:55.234Z,55.31
2023-03-09T12:47:03.765Z,55.40
2023-03-09T12:48:17.451Z,55.46
2023-03-09T12:49:23.952Z,55.24
2023-03-09T12:50:48.870Z,55.32
2023-03-09T12:51:55.156Z,54.90
2023-03-09T12:53:19.204Z,55.05
2023-03-09T12:54:25.553Z,55.22
2023-03-09T12:55:40.681Z,55.20
2023-03-09T12:56:43.321Z,55.16
2023-03-09T12:57:51.148Z,55.38
2023-03-09T12:58:54.574Z,55.12
2023-03-09T13:00:00.499Z,54.95
2023-03-09T13:01:18.110Z,55.12
2023-03-09T13:02:33.585Z,55.00
2023-03-09T13:03:49.236Z,55.10
2023-03-09T13:05:12.170Z,55.20
2023-03-09T13:06:38.600Z,55.16
2023-03-09T13:07:42.259Z,55.10
2023-03-09T13:08:49.267Z,55.30
2023-03-09T13:09:54.868Z,55.49
2023-03-09T13:11:24.200Z,55.50
2023-03-09T13:12:34.315Z,55.45
2023-03-09T13:13:41.889Z,55.20
2023-03-09T13:14:47.795Z,55.22
2023-03-09T13:15:50.138Z,55.50
2023-03-09T13:17:00.411Z,55.50
2023-03-09T13:18:23.138Z,55.34
2023-03-09T13:19:29.604Z,55.45
2023-03-09T13:20:36.542Z,55.67
2023-03-09T13:21:43.652Z,55.75
2023-03-09T13:22:50.669Z,55.84
2023-03-09T13:23:52.368Z,55.99
2023-03-09T13:25:18.896Z,56.04
2023-03-09T13:26:22.216Z,56.37
2023-03-09T13:27:28.100Z,56.41
2023-03-09T13:29:51.125Z,56.17
2023-03-09T13:30:55.343Z,56.44
2023-03-09T13:31:59.134Z,56.55
2023-03-09T13:33:06.249Z,56.95
2023-03-09T13:34:30.377Z,57.49
2023-03-09T13:35:39.229Z,57.34
2023-03-09T13:36:43.863Z,57.85
2023-03-09T13:37:47.426Z,58.24
2023-03-09T13:38:56.894Z,58.27
2023-03-09T13:40:04.215Z,58.62
2023-03-09T13:41:07.941Z,58.09
2023-03-09T13:42:14.981Z,58.82
2023-03-09T13:43:24.027Z,58.82
2023-03-09T13:44:27.411Z,58.36
2023-03-09T13:45:31.400Z,58.37
2023-03-09T13:46:36.766Z,58.41
2023-03-09T13:47:39.062Z,58.83
2023-03-09T13:48:47.954Z,58.77
2023-03-09T13:49:51.857Z,58.81
2023-03-09T13:50:54.498Z,58.79
2023-03-09T13:52:02.932Z,58.88
2023-03-09T13:53:09.407Z,58.69
2023-03-09T13:54:24.281Z,58.72
2023-03-09T13:55:29.120Z,58.88
2023-03-09T13:56:32.588Z,59.27
2023-03-09T13:57:39.426Z,59.12
2023-03-09T13:58:45.255Z,59.21
2023-03-09T14:00:14.480Z,59.59
2023-03-09T14:01:24.930Z,59.96
2023-03-09T14:02:30.309Z,60.21
2023-03-09T14:03:34.760Z,60.28
2023-03-09T14:04:48.944Z,59.86
2023-03-09T14:07:17.096Z,60.18
2023-03-09T14:08:22.820Z,60.36
2023-03-09T14:09:34.788Z,60.50
2023-03-09T14:10:39.940Z,60.58
2023-03-09T14:11:42.719Z,60.85
2023-03-09T14:12:45.408Z,61.21
2023-03-09T14:13:58.791Z,60.97
2023-03-09T14:15:03.981Z,61.03
2023-03-09T14:16:09.748Z,60.90
2023-03-09T14:17:15.590Z,61.12
2023-03-09T14:19:37.844Z,63.79
2023-03-09T14:20:41.841Z,64.35
2023-03-09T14:21:47.955Z,62.22
2023-03-09T14:22:52.372Z,62.60
2023-03-09T14:24:03.743Z,61.27
2023-03-09T14:25:29.115Z,61.21
2023-03-09T14:26:33.976Z,61.50
2023-03-09T14:27:38.713Z,61.43
2023-03-09T14:28:44.370Z,61.85
2023-03-09T14:29:46.761Z,62.05
2023-03-09T14:30:53.420Z,61.72
2023-03-09T14:32:32.343Z,61.78